KCRQ

Mc Clellan-Palomar Airport

Carlsbad, California, USA
METAR KCRQ 221718Z AUTO VRB05KT 10SM OVC028 16/11 A2993 RMK AO2 T01560106
Observed Flight Rules
May-22 @ 17:18 UTC (35 minutes ago) Marginal Visual Flight Rules
Wind Visibility Clouds
Variable at 5 knots 10 miles
  • Overcast at 2,800' AGL
Temperatures Readings
Current 16°C / 61°F
Dewpoint 11°C / 52°F
Humidity 72%
Altimeter 29.93" Hg
Pressure 1014 hPa
Elevation 99
METAR KCRQ 221718Z AUTO VRB05KT 10SM OVC028 16/11 A2993 RMK AO2 T01560106
Observed Flight Rules
May-22 @ 17:18 UTC
(35 minutes ago)
MVFR
Wind Visibility
Variable at 5 knots 10 miles
Clouds
  • Overcast at 2,800' AGL
Temperature Dewpoint
16°C / 61°F 11°C / 52°F
Humidity Altimeter Pressure
72% 29.93" Hg 1014 hPa